Webcam mot vest more information Webcam facing west


BeaufortBeaufort


Du finner stasjonens værinfo også på:

European Weather Network

WeatherCloud

Weather Underground

HAMweather, WeatherForYou, PWS Weather


Programvare vi bruker:

Weather Display

Leuven-Template 2.8

One.com

Stasjonens lagrede data tekst

Daglig sammendrag for juli 22, 2018 enheter:  Metric    Engelsk   Begge
« Forrige Dag
Neste Dag »
Daglig Weekly Månedlig Årlig Custom
  Gjeldene: h√ły: Lav: Snitt:
Temperatur: -8.6 °C -17.8 °C -11.2 °C -9.7 °C
Duggpunkt: -11.8 °C -17.8 °C -13.6 °C -12.5 °C
Luftfuktighet: 68 % Humidity % 66 % 72 %
Vind: 0 km/h 0 km/h 0 km/h 6.4 km/h
Vindkast: 2.6 km/h 0 km/h - -
Vind vesterålen:Calm - - WNW
Trykk: 33934.5 hPa 0 hPa 33934.5 hPa -
Nedb√łr: 0 mm      
Historical Graphs
 
 
Tabelldata for juli 22, 2018
Tid Temperatur Duggpunkt Trykk Vind vesterålen Vind Vindkast Luftfuktighet Regn Intensitet (Time)
-17.8 °C -17.8 °C 0 hPa Calm     Humidity % 0 mm
00:00 -11.2 °C -13.4 °C 34022.5 hPa WNW 20.8 km/h 23.3 km/h 76 % 0 mm
00:05 -11.2 °C -13.5 °C 34015.8 hPa NW 20.8 km/h 23.3 km/h 76 % 0 mm
00:10 -11.2 °C -13.6 °C 34015.8 hPa WNW 18.2 km/h 20.8 km/h 75 % 0 mm
00:15 -11.2 °C -13.6 °C 34015.8 hPa NW 7.7 km/h 10.3 km/h 75 % 0 mm
00:20 -11.2 °C -13.6 °C 34015.8 hPa NW 5.1 km/h 12.9 km/h 75 % 0 mm
00:25 -11.2 °C -13.6 °C 34012.4 hPa NW 7.7 km/h 15.6 km/h 75 % 0 mm
00:30 -11.2 °C -13.6 °C 34012.4 hPa NW 7.7 km/h 15.6 km/h 75 % 0 mm
00:35 -11.2 °C -13.6 °C 34012.4 hPa NW 5.1 km/h 12.9 km/h 75 % 0 mm
00:40 -11.2 °C -13.5 °C 34012.4 hPa NW 2.6 km/h 2.6 km/h 75 % 0 mm
00:45 -11.1 °C -13.5 °C 34015.8 hPa Calm     75 % 0 mm
00:50 -11.1 °C -13.5 °C 34015.8 hPa Calm   5.1 km/h 75 % 0 mm
00:55 -11.1 °C -13.5 °C 34015.8 hPa North 2.6 km/h 5.1 km/h 75 % 0 mm
01:00 -11.1 °C -13.4 °C 34015.8 hPa NE 2.6 km/h 2.6 km/h 76 % 0 mm
01:05 -11.1 °C -13.5 °C 34012.4 hPa Calm   2.6 km/h 75 % 0 mm
01:10 -11.1 °C -13.4 °C 34012.4 hPa Calm   2.6 km/h 76 % 0 mm
01:15 -11.1 °C -13.4 °C 34012.4 hPa NE 2.6 km/h 7.7 km/h 76 % 0 mm
01:20 -11.1 °C -13.4 °C 34012.4 hPa Calm     76 % 0 mm
01:25 -11.1 °C -13.4 °C 34009 hPa Calm   2.6 km/h 76 % 0 mm
01:30 -11.2 °C -13.4 °C 34009 hPa Calm   2.6 km/h 76 % 0 mm
01:35 -11.1 °C -13.4 °C 34009 hPa Calm     76 % 0 mm
01:40 -11.1 °C -13.4 °C 34009 hPa Calm     76 % 0 mm
01:45 -11.1 °C -13.3 °C 34005.6 hPa Calm     76 % 0 mm
01:50 -11.1 °C -13.3 °C 34005.6 hPa Calm   2.6 km/h 76 % 0 mm
01:55 -11.1 °C -13.3 °C 34005.6 hPa Calm   2.6 km/h 76 % 0 mm
02:00 -11.1 °C -13.4 °C 34005.6 hPa Calm     76 % 0 mm
02:05 -11.1 °C -13.4 °C 34012.4 hPa Calm   5.1 km/h 76 % 0 mm
02:10 -11.1 °C -13.3 °C 34012.4 hPa Calm   5.1 km/h 76 % 0 mm
02:15 -11.1 °C -13.3 °C 34012.4 hPa Calm   2.6 km/h 76 % 0 mm
02:20 -11.1 °C -13.3 °C 34012.4 hPa Calm     76 % 0 mm
02:25 -11.1 °C -13.3 °C 34012.4 hPa Calm   5.1 km/h 76 % 0 mm
02:30 -11.1 °C -13.3 °C 34012.4 hPa Calm   5.1 km/h 76 % 0 mm
02:35 -11.1 °C -13.3 °C 34012.4 hPa East 2.6 km/h 5.1 km/h 76 % 0 mm
02:40 -11.1 °C -13.3 °C 34012.4 hPa ESE 2.6 km/h 5.1 km/h 76 % 0 mm
02:45 -11.1 °C -13.3 °C 34012.4 hPa Calm   2.6 km/h 76 % 0 mm
02:50 -11.1 °C -13.3 °C 34012.4 hPa Calm   2.6 km/h 76 % 0 mm
02:55 -11.1 °C -13.3 °C 34012.4 hPa Calm   5.1 km/h 76 % 0 mm
03:00 -11.1 °C -13.3 °C 34012.4 hPa SSE 2.6 km/h 5.1 km/h 76 % 0 mm
03:05 -11.1 °C -13.3 °C 34012.4 hPa SSW 2.6 km/h 2.6 km/h 76 % 0 mm
03:10 -11.1 °C -13.3 °C 34012.4 hPa WSW 2.6 km/h 7.7 km/h 76 % 0 mm
03:15 -11.1 °C -13.3 °C 34012.4 hPa West 2.6 km/h 7.7 km/h 76 % 0 mm
03:20 -11.1 °C -13.3 °C 34012.4 hPa WNW 5.1 km/h 7.7 km/h 76 % 0 mm
03:25 -11.1 °C -13.3 °C 34009 hPa West 5.1 km/h 7.7 km/h 76 % 0 mm
03:30 -11.1 °C -13.4 °C 34009 hPa West 5.1 km/h 7.7 km/h 76 % 0 mm
03:35 -11.1 °C -13.3 °C 34009 hPa West 5.1 km/h 5.1 km/h 76 % 0 mm
03:40 -11.1 °C -13.4 °C 34009 hPa West 5.1 km/h 10.3 km/h 76 % 0 mm
03:45 -11.1 °C -13.4 °C 34015.8 hPa West 5.1 km/h 10.3 km/h 76 % 0 mm
03:50 -11.1 °C -13.3 °C 34019.1 hPa WSW 5.1 km/h 7.7 km/h 76 % 0 mm
03:55 -11.1 °C -13.4 °C 34019.1 hPa SW 5.1 km/h 7.7 km/h 76 % 0 mm
04:00 -11.1 °C -13.4 °C 34019.1 hPa SW 5.1 km/h 5.1 km/h 76 % 0 mm
04:05 -11.1 °C -13.4 °C 34009 hPa WSW 2.6 km/h 5.1 km/h 76 % 0 mm
04:10 -11.1 °C -13.4 °C 34009 hPa West 5.1 km/h 12.9 km/h 76 % 0 mm
04:15 -11.1 °C -13.4 °C 34009 hPa WNW 5.1 km/h 12.9 km/h 76 % 0 mm
04:20 -11.1 °C -13.4 °C 34009 hPa NW 7.7 km/h 10.3 km/h 76 % 0 mm
04:25 -11.1 °C -13.4 °C 34012.4 hPa NW 5.1 km/h 7.7 km/h 76 % 0 mm
04:30 -11.1 °C -13.4 °C 34012.4 hPa WNW 5.1 km/h 7.7 km/h 76 % 0 mm
04:35 -11.1 °C -13.4 °C 34012.4 hPa WNW 5.1 km/h 5.1 km/h 76 % 0 mm
04:40 -11.1 °C -13.3 °C 34012.4 hPa WNW 2.6 km/h 5.1 km/h 76 % 0 mm
04:45 -11.1 °C -13.3 °C 34009 hPa WNW 2.6 km/h 2.6 km/h 76 % 0 mm
04:50 -11.1 °C -13.3 °C 34009 hPa WNW 2.6 km/h   76 % 0 mm
04:55 -11.1 °C -13.3 °C 34009 hPa Calm     76 % 0 mm
05:00 -11 °C -13.3 °C 34009 hPa Calm     76 % 0 mm
05:05 -10.9 °C -13.2 °C 34012.4 hPa Calm     76 % 0 mm
05:10 -10.9 °C -13.2 °C 34012.4 hPa Calm     76 % 0 mm
05:15 -10.9 °C -13.2 °C 34012.4 hPa Calm     76 % 0 mm
05:20 -10.9 °C -13.2 °C 34012.4 hPa Calm   2.6 km/h 76 % 0 mm
05:25 -10.9 °C -13.2 °C 34009 hPa Calm   5.1 km/h 76 % 0 mm
05:30 -10.9 °C -13.2 °C 34009 hPa WNW 2.6 km/h 5.1 km/h 76 % 0 mm
05:35 -10.9 °C -13.2 °C 34009 hPa WNW 2.6 km/h 5.1 km/h 76 % 0 mm
05:40 -10.8 °C -13.1 °C 34009 hPa WNW 2.6 km/h 5.1 km/h 76 % 0 mm
05:45 -10.8 °C -13.1 °C 34005.6 hPa WNW 2.6 km/h 5.1 km/h 76 % 0 mm
05:50 -10.8 °C -13.1 °C 34005.6 hPa WNW 2.6 km/h 2.6 km/h 76 % 0 mm
05:55 -10.8 °C -13.1 °C 34005.6 hPa West 2.6 km/h 5.1 km/h 76 % 0 mm
06:00 -10.7 °C -13 °C 34005.6 hPa WSW 2.6 km/h 5.1 km/h 76 % 0 mm
06:05 -10.7 °C -13 °C 33998.8 hPa WNW 5.1 km/h 7.7 km/h 76 % 0 mm
06:10 -10.7 °C -13 °C 33998.8 hPa WNW 2.6 km/h 5.1 km/h 76 % 0 mm
06:15 -10.7 °C -12.9 °C 33998.8 hPa WNW 2.6 km/h 2.6 km/h 76 % 0 mm
06:20 -10.7 °C -12.9 °C 33998.8 hPa WNW 2.6 km/h 5.1 km/h 76 % 0 mm
06:25 -10.6 °C -12.9 °C 33995.4 hPa WNW 2.6 km/h 5.1 km/h 76 % 0 mm
06:30 -10.6 °C -12.9 °C 33995.4 hPa WNW 5.1 km/h 7.7 km/h 76 % 0 mm
06:35 -10.6 °C -12.8 °C 33995.4 hPa WNW 5.1 km/h 7.7 km/h 76 % 0 mm
06:40 -10.5 °C -12.8 °C 33995.4 hPa WNW 5.1 km/h 7.7 km/h 76 % 0 mm
06:45 -10.4 °C -12.7 °C 33998.8 hPa WNW 5.1 km/h 5.1 km/h 76 % 0 mm
06:50 -10.3 °C -12.6 °C 33998.8 hPa WNW 2.6 km/h 7.7 km/h 76 % 0 mm
06:55 -10.3 °C -12.6 °C 33998.8 hPa WNW 5.1 km/h 7.7 km/h 76 % 0 mm
07:00 -10.2 °C -12.6 °C 33998.8 hPa WNW 5.1 km/h 7.7 km/h 76 % 0 mm
07:05 -10.2 °C -12.6 °C 34002.2 hPa West 5.1 km/h 7.7 km/h 76 % 0 mm
07:10 -10.2 °C -12.6 °C 34002.2 hPa West 5.1 km/h 12.9 km/h 76 % 0 mm
07:15 -10.2 °C -12.6 °C 34002.2 hPa West 5.1 km/h 12.9 km/h 76 % 0 mm
07:20 -10.2 °C -12.6 °C 34002.2 hPa WNW 5.1 km/h 7.7 km/h 76 % 0 mm
07:25 -10.3 °C -12.6 °C 34005.6 hPa WNW 5.1 km/h 7.7 km/h 76 % 0 mm
07:30 -10.3 °C -12.6 °C 34005.6 hPa WNW 7.7 km/h 12.9 km/h 77 % 0 mm
07:35 -10.3 °C -12.6 °C 34005.6 hPa WNW 7.7 km/h 12.9 km/h 76 % 0 mm
07:40 -10.4 °C -12.7 °C 34005.6 hPa WNW 7.7 km/h 12.9 km/h 76 % 0 mm
07:45 -10.3 °C -12.6 °C 33998.8 hPa WNW 7.7 km/h 12.9 km/h 76 % 0 mm
07:50 -10.3 °C -12.6 °C 33998.8 hPa WNW 7.7 km/h 12.9 km/h 76 % 0 mm
07:55 -10.3 °C -12.6 °C 33998.8 hPa WNW 5.1 km/h 7.7 km/h 76 % 0 mm
08:00 -10.3 °C -12.6 °C 33998.8 hPa WNW 5.1 km/h 7.7 km/h 76 % 0 mm
08:05 -10.3 °C -12.6 °C 33998.8 hPa WNW 5.1 km/h 7.7 km/h 76 % 0 mm
08:10 -10.3 °C -12.6 °C 33998.8 hPa WNW 5.1 km/h 7.7 km/h 76 % 0 mm
08:15 -10.3 °C -12.6 °C 33998.8 hPa WNW 2.6 km/h 5.1 km/h 76 % 0 mm
08:20 -10.3 °C -12.6 °C 33998.8 hPa WNW 2.6 km/h 7.7 km/h 76 % 0 mm
08:25 -10.2 °C -12.6 °C 33988.7 hPa WNW 2.6 km/h 7.7 km/h 76 % 0 mm
08:30 -10.2 °C -12.4 °C 33988.7 hPa West 5.1 km/h 7.7 km/h 76 % 0 mm
08:35 -10.1 °C -12.4 °C 33988.7 hPa West 5.1 km/h 7.7 km/h 76 % 0 mm
08:40 -10.1 °C -12.4 °C 33988.7 hPa WNW 5.1 km/h 7.7 km/h 76 % 0 mm
08:45 -10.1 °C -12.4 °C 33981.9 hPa WNW 5.1 km/h 7.7 km/h 76 % 0 mm
08:50 -10.1 °C -12.4 °C 33981.9 hPa WNW 2.6 km/h 7.7 km/h 76 % 0 mm
08:55 -10.1 °C -12.4 °C 33981.9 hPa WNW 2.6 km/h 7.7 km/h 76 % 0 mm
09:00 -10.1 °C -12.4 °C 33981.9 hPa WNW 5.1 km/h 7.7 km/h 76 % 0 mm
09:05 -10 °C -12.3 °C 33988.7 hPa WNW 5.1 km/h 7.7 km/h 76 % 0 mm
09:10 -10.1 °C -12.4 °C 33988.7 hPa WNW 5.1 km/h 7.7 km/h 76 % 0 mm
09:15 -10 °C -12.3 °C 33988.7 hPa WNW 5.1 km/h 7.7 km/h 76 % 0 mm
09:20 -10 °C -12.3 °C 33988.7 hPa WNW 5.1 km/h 7.7 km/h 76 % 0 mm
09:25 -9.9 °C -12.3 °C 33988.7 hPa WNW 5.1 km/h 5.1 km/h 75 % 0 mm
09:30 -9.8 °C -12.3 °C 33988.7 hPa WNW 5.1 km/h 7.7 km/h 75 % 0 mm
09:35 -9.6 °C -12.1 °C 33988.7 hPa West 5.1 km/h 7.7 km/h 75 % 0 mm
09:40 -9.6 °C -12 °C 33988.7 hPa West 5.1 km/h 7.7 km/h 75 % 0 mm
09:45 -9.6 °C -12 °C 33985.3 hPa West 5.1 km/h 10.3 km/h 75 % 0 mm
09:50 -9.6 °C -12 °C 33985.3 hPa WNW 5.1 km/h 10.3 km/h 75 % 0 mm
09:55 -9.4 °C -11.8 °C 33985.3 hPa West 5.1 km/h 7.7 km/h 75 % 0 mm
10:00 -9.4 °C -11.8 °C 33985.3 hPa WSW 5.1 km/h 7.7 km/h 75 % 0 mm
10:05 -9.2 °C -11.8 °C 33981.9 hPa WSW 5.1 km/h 10.3 km/h 74 % 0 mm
10:10 -9.2 °C -11.7 °C 33981.9 hPa WSW 5.1 km/h 10.3 km/h 74 % 0 mm
10:15 -9.2 °C -11.8 °C 33981.9 hPa West 5.1 km/h 12.9 km/h 74 % 0 mm
10:20 -9.2 °C -11.8 °C 33981.9 hPa West 5.1 km/h 12.9 km/h 73 % 0 mm
10:25 -9.1 °C -11.7 °C 33985.3 hPa WNW 5.1 km/h 7.7 km/h 73 % 0 mm
10:30 -9 °C -11.7 °C 33985.3 hPa WNW 5.1 km/h 7.7 km/h 73 % 0 mm
10:35 -8.9 °C -11.6 °C 33985.3 hPa WNW 5.1 km/h 10.3 km/h 73 % 0 mm
10:40 -8.8 °C -11.5 °C 33985.3 hPa West 5.1 km/h 10.3 km/h 73 % 0 mm
10:45 -8.7 °C -11.6 °C 33971.7 hPa West 5.1 km/h 10.3 km/h 72 % 0 mm
10:50 -8.6 °C -11.3 °C 33971.7 hPa WSW 7.7 km/h 12.9 km/h 72 % 0 mm
10:55 -8.5 °C -11.4 °C 33971.7 hPa WSW 7.7 km/h 12.9 km/h 71 % 0 mm
11:00 -8.3 °C -11.4 °C 33971.7 hPa WSW 7.7 km/h 12.9 km/h 70 % 0 mm
11:05 -8.3 °C -11.5 °C 33975.1 hPa West 7.7 km/h 12.9 km/h 69 % 0 mm
11:10 -8.5 °C -11.8 °C 33975.1 hPa WNW 12.9 km/h 15.6 km/h 68 % 0 mm
11:15 -8.7 °C -12 °C 33975.1 hPa WNW 12.9 km/h 15.6 km/h 68 % 0 mm
11:20 -8.6 °C -11.8 °C 33975.1 hPa WNW 12.9 km/h 12.9 km/h 69 % 0 mm
11:25 -8.5 °C -11.8 °C 33975.1 hPa WNW 12.9 km/h 15.6 km/h 68 % 0 mm
11:30 -8.6 °C -11.8 °C 33975.1 hPa WNW 12.9 km/h 15.6 km/h 68 % 0 mm
11:35 -8.7 °C -11.9 °C 33975.1 hPa WNW 12.9 km/h 12.9 km/h 68 % 0 mm
11:40 -8.6 °C -11.7 °C 33975.1 hPa WNW 12.9 km/h 12.9 km/h 69 % 0 mm
11:45 -8.6 °C -11.8 °C 33971.7 hPa WNW 12.9 km/h 15.6 km/h 68 % 0 mm
11:50 -8.6 °C -11.8 °C 33971.7 hPa WNW 12.9 km/h 15.6 km/h 68 % 0 mm
11:55 -8.6 °C -11.9 °C 33971.7 hPa WNW 12.9 km/h 15.6 km/h 68 % 0 mm
12:00 -8.7 °C -11.9 °C 33971.7 hPa WNW 12.9 km/h 12.9 km/h 68 % 0 mm
12:05 -8.7 °C -12 °C 33968.4 hPa WNW 12.9 km/h 12.9 km/h 68 % 0 mm
12:10 -8.6 °C -11.8 °C 33968.4 hPa WNW 12.9 km/h 12.9 km/h 69 % 0 mm
12:15 -8.7 °C -11.9 °C 33968.4 hPa WNW 12.9 km/h 15.6 km/h 68 % 0 mm
12:20 -8.9 °C -12.2 °C 33968.4 hPa WNW 12.9 km/h 15.6 km/h 68 % 0 mm
12:25 -8.9 °C -12.1 °C 33968.4 hPa WNW 12.9 km/h 15.6 km/h 69 % 0 mm
12:30 -8.7 °C -11.9 °C 33968.4 hPa WNW 12.9 km/h 15.6 km/h 69 % 0 mm
12:35 -8.7 °C -11.9 °C 33968.4 hPa WNW 12.9 km/h 15.6 km/h 69 % 0 mm
12:40 -8.8 °C -11.9 °C 33968.4 hPa WNW 12.9 km/h 15.6 km/h 69 % 0 mm
12:45 -8.8 °C -12 °C 33975.1 hPa WNW 12.9 km/h 15.6 km/h 69 % 0 mm
12:50 -8.8 °C -12 °C 33975.1 hPa WNW 12.9 km/h 15.6 km/h 69 % 0 mm
12:55 -8.8 °C -12 °C 33975.1 hPa WNW 12.9 km/h 15.6 km/h 69 % 0 mm
13:00 -8.8 °C -11.9 °C 33975.1 hPa West 12.9 km/h 15.6 km/h 69 % 0 mm
13:05 -8.7 °C -11.9 °C 33968.4 hPa WNW 12.9 km/h 15.6 km/h 69 % 0 mm
13:10 -8.7 °C -11.8 °C 33968.4 hPa WNW 12.9 km/h 15.6 km/h 69 % 0 mm
13:15 -8.7 °C -12 °C 33968.4 hPa WNW 12.9 km/h 12.9 km/h 68 % 0 mm
13:20 -8.7 °C -12 °C 33968.4 hPa WNW 12.9 km/h 12.9 km/h 68 % 0 mm
13:25 -8.7 °C -12 °C 33961.6 hPa WNW 12.9 km/h 12.9 km/h 68 % 0 mm
13:30 -8.7 °C -12 °C 33961.6 hPa WNW 12.9 km/h 12.9 km/h 68 % 0 mm
13:35 -8.7 °C -12 °C 33961.6 hPa WNW 12.9 km/h 12.9 km/h 68 % 0 mm
13:40 -8.7 °C -12 °C 33961.6 hPa WNW 12.9 km/h 12.9 km/h 68 % 0 mm
13:45 -8.7 °C -12 °C 33961.6 hPa WNW 12.9 km/h 15.6 km/h 68 % 0 mm
13:50 -8.8 °C -12.1 °C 33961.6 hPa WNW 12.9 km/h 15.6 km/h 68 % 0 mm
13:55 -8.7 °C -11.8 °C 33961.6 hPa West 12.9 km/h 12.9 km/h 69 % 0 mm
14:00 -8.7 °C -11.8 °C 33961.6 hPa WNW 12.9 km/h 12.9 km/h 69 % 0 mm
14:05 -8.7 °C -11.9 °C 33968.4 hPa NW 12.9 km/h 15.6 km/h 68 % 0 mm
14:10 -8.7 °C -11.9 °C 33968.4 hPa WNW 12.9 km/h 15.6 km/h 68 % 0 mm
14:15 -8.7 °C -11.8 °C 33968.4 hPa WNW 12.9 km/h 12.9 km/h 69 % 0 mm
14:20 -8.7 °C -11.9 °C 33968.4 hPa WNW 7.7 km/h 10.3 km/h 68 % 0 mm
14:25 -8.6 °C -11.7 °C 33961.6 hPa WNW 7.7 km/h 12.9 km/h 69 % 0 mm
14:30 -8.6 °C -11.9 °C 33961.6 hPa WNW 7.7 km/h 10.3 km/h 68 % 0 mm
14:35 -8.6 °C -11.9 °C 33961.6 hPa WNW 7.7 km/h 12.9 km/h 68 % 0 mm
14:40 -8.7 °C -11.9 °C 33961.6 hPa WNW 7.7 km/h 12.9 km/h 68 % 0 mm
14:45 -8.6 °C -11.8 °C 33954.8 hPa NW 12.9 km/h 12.9 km/h 69 % 0 mm
14:50 -8.6 °C -11.7 °C 33954.8 hPa WNW 12.9 km/h 12.9 km/h 69 % 0 mm
14:55 -8.6 °C -11.7 °C 33954.8 hPa WNW 12.9 km/h 12.9 km/h 69 % 0 mm
15:00 -8.5 °C -11.7 °C 33954.8 hPa WNW 12.9 km/h 18.2 km/h 69 % 0 mm
15:05 -8.5 °C -11.7 °C 33965 hPa WNW 12.9 km/h 18.2 km/h 69 % 0 mm
15:10 -8.5 °C -11.7 °C 33968.4 hPa WNW 12.9 km/h 15.6 km/h 69 % 0 mm
15:15 -8.4 °C -11.6 °C 33968.4 hPa WNW 12.9 km/h 15.6 km/h 69 % 0 mm
15:20 -8.4 °C -11.8 °C 33968.4 hPa WNW 12.9 km/h 15.6 km/h 68 % 0 mm
15:25 -8.4 °C -11.7 °C 33968.4 hPa WNW 12.9 km/h 15.6 km/h 68 % 0 mm
15:30 -8.4 °C -11.8 °C 33968.4 hPa WNW 12.9 km/h 15.6 km/h 68 % 0 mm
15:35 -8.4 °C -11.8 °C 33968.4 hPa West 7.7 km/h 12.9 km/h 68 % 0 mm
15:40 -8.5 °C -11.9 °C 33968.4 hPa West 5.1 km/h 7.7 km/h 67 % 0 mm
15:45 -8.5 °C -12.1 °C 33958.2 hPa West 5.1 km/h 5.1 km/h 66 % 0 mm
15:50 -8.6 °C -11.9 °C 33958.2 hPa WNW 2.6 km/h 5.1 km/h 67 % 0 mm
15:55 -8.4 °C -11.9 °C 33958.2 hPa West 5.1 km/h 12.9 km/h 67 % 0 mm
16:00 -8.5 °C -12.1 °C 33958.2 hPa WNW 5.1 km/h 12.9 km/h 66 % 0 mm
16:05 -8.6 °C -12 °C 33954.8 hPa WNW 7.7 km/h 12.9 km/h 67 % 0 mm
16:10 -8.7 °C -12.1 °C 33954.8 hPa WNW 12.9 km/h 18.2 km/h 67 % 0 mm
16:15 -8.6 °C -11.9 °C 33954.8 hPa WNW 12.9 km/h 18.2 km/h 68 % 0 mm
16:20 -8.6 °C -11.8 °C 33954.8 hPa WNW 12.9 km/h 15.6 km/h 68 % 0 mm
16:25 -8.6 °C -11.9 °C 33978.5 hPa WNW 12.9 km/h 12.9 km/h 68 % 0 mm
16:30 -8.7 °C -11.9 °C 33978.5 hPa WNW 12.9 km/h 12.9 km/h 68 % 0 mm
16:35 -8.7 °C -11.9 °C 33978.5 hPa WNW 12.9 km/h 12.9 km/h 68 % 0 mm
16:40 -8.7 °C -12 °C 33978.5 hPa WNW 7.7 km/h 12.9 km/h 68 % 0 mm
16:45 -8.7 °C -12 °C 33965 hPa WNW 7.7 km/h 12.9 km/h 68 % 0 mm
16:50 -8.7 °C -12 °C 33965 hPa WNW 7.7 km/h 7.7 km/h 68 % 0 mm
16:55 -8.7 °C -12 °C 33965 hPa NW 7.7 km/h 10.3 km/h 68 % 0 mm
17:00 -8.7 °C -12 °C 33965 hPa NW 5.1 km/h 10.3 km/h 68 % 0 mm
17:05 -8.8 °C -12.1 °C 33961.6 hPa WNW 7.7 km/h 10.3 km/h 68 % 0 mm
17:10 -8.8 °C -12.1 °C 33961.6 hPa WNW 7.7 km/h 12.9 km/h 68 % 0 mm
17:15 -8.8 °C -12.1 °C 33961.6 hPa NW 7.7 km/h 12.9 km/h 68 % 0 mm
17:20 -8.8 °C -12 °C 33961.6 hPa WNW 7.7 km/h 10.3 km/h 69 % 0 mm
17:25 -8.9 °C -12.1 °C 33965 hPa NW 5.1 km/h 7.7 km/h 69 % 0 mm
17:30 -9.1 °C -12.2 °C 33965 hPa NW 5.1 km/h 7.7 km/h 69 % 0 mm
17:35 -8.9 °C -12.1 °C 33965 hPa WNW 2.6 km/h 5.1 km/h 69 % 0 mm
17:40 -8.8 °C -12 °C 33965 hPa WNW 2.6 km/h 7.7 km/h 69 % 0 mm
17:45 -8.7 °C -11.9 °C 33958.2 hPa WNW 5.1 km/h 12.9 km/h 69 % 0 mm
17:50 -8.7 °C -11.9 °C 33958.2 hPa West 5.1 km/h 7.7 km/h 69 % 0 mm
17:55 -8.7 °C -12 °C 33958.2 hPa West 7.7 km/h 12.9 km/h 68 % 0 mm
18:00 -8.7 °C -11.9 °C 33958.2 hPa WNW 7.7 km/h 15.6 km/h 69 % 0 mm
18:05 -8.8 °C -12.1 °C 33968.4 hPa WNW 12.9 km/h 15.6 km/h 68 % 0 mm
18:10 -8.8 °C -12 °C 33968.4 hPa WNW 12.9 km/h 15.6 km/h 69 % 0 mm
18:15 -8.8 °C -11.9 °C 33968.4 hPa West 12.9 km/h 12.9 km/h 69 % 0 mm
18:20 -8.8 °C -12 °C 33968.4 hPa WNW 12.9 km/h 15.6 km/h 69 % 0 mm
18:25 -9 °C -12.2 °C 33958.2 hPa WNW 12.9 km/h 15.6 km/h 69 % 0 mm
18:30 -9.1 °C -12.2 °C 33958.2 hPa WNW 12.9 km/h 15.6 km/h 69 % 0 mm
18:35 -9.2 °C -12.2 °C 33958.2 hPa WNW 12.9 km/h 18.2 km/h 70 % 0 mm
18:40 -9.2 °C -12.2 °C 33958.2 hPa WNW 12.9 km/h 15.6 km/h 70 % 0 mm
18:45 -9.3 °C -12.3 °C 33954.8 hPa WNW 12.9 km/h 15.6 km/h 70 % 0 mm
18:50 -9.4 °C -12.4 °C 33954.8 hPa WNW 12.9 km/h 15.6 km/h 70 % 0 mm
18:55 -9.3 °C -12.3 °C 33954.8 hPa WNW 12.9 km/h 15.6 km/h 70 % 0 mm
19:00 -9.3 °C -12.3 °C 33954.8 hPa WNW 12.9 km/h 15.6 km/h 70 % 0 mm
19:05 -9.2 °C -12.3 °C 33958.2 hPa WNW 12.9 km/h 12.9 km/h 70 % 0 mm
19:10 -9.2 °C -12.2 °C 33958.2 hPa WNW 7.7 km/h 10.3 km/h 70 % 0 mm
19:15 -9.2 °C -12.2 °C 33958.2 hPa WNW 5.1 km/h 7.7 km/h 70 % 0 mm
19:20 -9.1 °C -12.2 °C 33958.2 hPa WNW 2.6 km/h 5.1 km/h 70 % 0 mm
19:25 -9.2 °C -12.2 °C 33948 hPa Calm   2.6 km/h 70 % 0 mm
19:30 -9.2 °C -12.2 °C 33948 hPa Calm     70 % 0 mm
19:35 -9.1 °C -12.2 °C 33948 hPa Calm     69 % 0 mm
19:40 -9 °C -12.1 °C 33948 hPa Calm     69 % 0 mm
19:45 -9 °C -12.2 °C 33944.7 hPa Calm     69 % 0 mm
19:50 -9 °C -12.2 °C 33944.7 hPa Calm     69 % 0 mm
19:55 -8.9 °C -12.2 °C 33944.7 hPa Calm     68 % 0 mm
20:00 -8.9 °C -12.2 °C 33944.7 hPa Calm   2.6 km/h 68 % 0 mm
20:05 -8.8 °C -12.1 °C 33944.7 hPa Calm   2.6 km/h 68 % 0 mm
20:10 -8.8 °C -12.1 °C 33944.7 hPa Calm   5.1 km/h 68 % 0 mm
20:15 -8.7 °C -12 °C 33944.7 hPa West 2.6 km/h 5.1 km/h 68 % 0 mm
20:20 -8.7 °C -12 °C 33944.7 hPa WSW 2.6 km/h 2.6 km/h 68 % 0 mm
20:25 -8.6 °C -11.9 °C 33934.5 hPa Calm   2.6 km/h 68 % 0 mm
20:30 -8.6 °C -11.8 °C 33934.5 hPa Calm   2.6 km/h 68 % 0 mm
vindpropell
Compliments of Weather Underground - 3.75 mb

Script utviklet av  Jim McMurry - jmcmurry@mwt.net Tilpasset for tamplaten av  Wim van der Kuil - Leuven-Template.eu